createdAt,value
2019-03-23T00:00:15.713Z,5.90
2019-03-23T00:02:58.555Z,5.90
2019-03-23T00:05:40.700Z,6.00
2019-03-23T00:08:16.310Z,6.00
2019-03-23T00:10:58.259Z,6.00
2019-03-23T00:13:41.076Z,6.10
2019-03-23T00:16:17.461Z,6.00
2019-03-23T00:19:00.126Z,6.00
2019-03-23T00:21:41.933Z,6.00
2019-03-23T00:24:18.073Z,6.00
2019-03-23T00:26:53.870Z,6.00
2019-03-23T00:29:36.619Z,6.00
2019-03-23T00:32:12.511Z,5.90
2019-03-23T00:34:55.130Z,6.00
2019-03-23T00:37:36.925Z,6.00
2019-03-23T00:40:16.109Z,5.90
2019-03-23T00:42:58.678Z,5.90
2019-03-23T00:45:34.132Z,5.80
2019-03-23T00:48:16.618Z,5.70
2019-03-23T00:50:52.124Z,5.50
2019-03-23T00:53:35.055Z,5.40
2019-03-23T00:56:17.396Z,5.30
2019-03-23T00:58:59.911Z,5.20
2019-03-23T01:01:42.680Z,5.10
2019-03-23T01:04:24.594Z,5.10
2019-03-23T01:07:00.187Z,5.00
2019-03-23T01:09:42.062Z,4.90
2019-03-23T01:12:25.104Z,4.80
2019-03-23T01:15:06.846Z,4.80
2019-03-23T01:17:56.086Z,4.90
2019-03-23T01:20:49.102Z,4.90
2019-03-23T01:23:16.015Z,4.80
2019-03-23T01:25:58.934Z,4.80
2019-03-23T01:28:35.446Z,4.60
2019-03-23T01:31:18.456Z,4.70
2019-03-23T01:33:54.218Z,4.80
2019-03-23T01:36:35.913Z,4.70
2019-03-23T01:39:20.464Z,4.70
2019-03-23T01:42:02.724Z,4.70
2019-03-23T01:44:45.039Z,4.60
2019-03-23T01:47:27.662Z,4.70
2019-03-23T01:50:03.413Z,4.80
2019-03-23T01:52:46.466Z,4.90
2019-03-23T01:55:22.194Z,5.00
2019-03-23T01:58:04.490Z,5.00
2019-03-23T02:00:43.279Z,5.20
2019-03-23T02:03:25.430Z,5.30
2019-03-23T02:06:01.785Z,5.30
2019-03-23T02:08:44.095Z,5.40
2019-03-23T02:11:19.713Z,5.50
2019-03-23T02:14:02.150Z,5.60
2019-03-23T02:16:37.710Z,5.70
2019-03-23T02:19:21.139Z,5.80
2019-03-23T02:22:03.308Z,5.80
2019-03-23T02:24:45.681Z,5.80
2019-03-23T02:27:21.627Z,5.80
2019-03-23T02:30:04.636Z,5.80
2019-03-23T02:32:47.490Z,5.80
2019-03-23T02:35:23.047Z,5.80
2019-03-23T02:38:05.800Z,5.80
2019-03-23T02:40:47.914Z,5.90
2019-03-23T02:43:31.219Z,6.00
2019-03-23T02:46:07.035Z,6.20
2019-03-23T02:48:49.652Z,6.20
2019-03-23T02:51:25.408Z,6.30
2019-03-23T02:54:08.228Z,6.40
2019-03-23T02:56:58.416Z,6.40
2019-03-23T02:59:34.241Z,6.40
2019-03-23T03:02:16.786Z,6.40
2019-03-23T03:04:59.435Z,6.50
2019-03-23T03:07:43.784Z,6.50
2019-03-23T03:10:55.170Z,6.50
2019-03-23T03:13:30.785Z,6.50
2019-03-23T03:16:13.476Z,6.50
2019-03-23T03:18:55.666Z,6.50
2019-03-23T03:21:32.066Z,6.50
2019-03-23T03:24:14.748Z,6.50
2019-03-23T03:26:57.296Z,6.60
2019-03-23T03:29:39.029Z,6.60
2019-03-23T03:32:21.494Z,6.60
2019-03-23T03:35:10.363Z,6.60
2019-03-23T03:37:57.040Z,6.60
2019-03-23T03:40:36.397Z,6.70
2019-03-23T03:43:18.891Z,6.70
2019-03-23T03:45:54.597Z,6.70
2019-03-23T03:48:37.419Z,6.70
2019-03-23T03:51:13.797Z,6.70
2019-03-23T03:53:55.539Z,6.80
2019-03-23T03:56:31.413Z,6.80
2019-03-23T03:59:13.227Z,6.70
2019-03-23T04:01:49.670Z,6.80
2019-03-23T04:04:32.103Z,6.80
2019-03-23T04:07:08.558Z,6.90
2019-03-23T04:09:51.702Z,6.90
2019-03-23T04:12:27.436Z,6.90
2019-03-23T04:15:09.168Z,7.00
2019-03-23T04:17:58.041Z,7.00
2019-03-23T04:20:40.891Z,7.10
2019-03-23T04:23:17.154Z,7.10
2019-03-23T04:25:59.944Z,7.20
2019-03-23T04:28:35.661Z,7.20
2019-03-23T04:31:18.742Z,7.10
2019-03-23T04:33:54.693Z,7.20
2019-03-23T04:36:37.861Z,7.20
2019-03-23T04:39:14.794Z,7.10
2019-03-23T04:41:58.136Z,7.10
2019-03-23T04:44:40.284Z,7.10
2019-03-23T04:47:22.994Z,7.00
2019-03-23T04:49:59.355Z,7.00
2019-03-23T04:52:41.830Z,6.90
2019-03-23T04:55:26.288Z,6.90
2019-03-23T04:58:08.586Z,6.90
2019-03-23T05:00:51.674Z,7.00
2019-03-23T05:03:41.196Z,7.00
2019-03-23T05:06:23.743Z,6.90
2019-03-23T05:08:59.574Z,7.00
2019-03-23T05:11:41.958Z,7.00
2019-03-23T05:14:18.388Z,7.10
2019-03-23T05:17:00.934Z,7.20
2019-03-23T05:19:37.456Z,7.30
2019-03-23T05:22:20.051Z,7.30
2019-03-23T05:24:55.542Z,7.30
2019-03-23T05:27:38.820Z,7.30
2019-03-23T05:30:16.218Z,7.30
2019-03-23T05:32:59.374Z,7.40
2019-03-23T05:35:41.715Z,7.40
2019-03-23T05:38:23.867Z,7.60
2019-03-23T05:41:06.894Z,7.50
2019-03-23T05:43:42.580Z,7.60
2019-03-23T05:46:25.049Z,7.70
2019-03-23T05:49:00.750Z,7.70
2019-03-23T05:51:43.222Z,7.80
2019-03-23T05:54:32.727Z,7.80
2019-03-23T05:57:15.090Z,7.90
2019-03-23T05:59:51.425Z,8.00
2019-03-23T06:02:33.618Z,8.00
2019-03-23T06:05:16.351Z,8.10
2019-03-23T06:07:58.597Z,8.10
2019-03-23T06:10:35.054Z,8.20
2019-03-23T06:13:16.824Z,8.20
2019-03-23T06:15:59.522Z,8.30
2019-03-23T06:18:35.365Z,8.40
2019-03-23T06:21:17.954Z,8.50
2019-03-23T06:24:00.182Z,8.60
2019-03-23T06:26:43.471Z,8.70
2019-03-23T06:29:19.102Z,8.70
2019-03-23T06:32:02.266Z,8.60
2019-03-23T06:34:37.857Z,8.70
2019-03-23T06:37:19.764Z,8.70
2019-03-23T06:39:55.254Z,8.70
2019-03-23T06:42:38.590Z,8.80
2019-03-23T06:45:17.281Z,8.90
2019-03-23T06:48:00.702Z,9.00
2019-03-23T06:50:43.307Z,9.00
2019-03-23T06:53:33.277Z,9.00
2019-03-23T06:56:15.511Z,9.10
2019-03-23T06:59:01.037Z,9.10
2019-03-23T07:01:43.606Z,9.20
2019-03-23T07:04:19.916Z,9.30
2019-03-23T07:07:03.192Z,9.30
2019-03-23T07:09:45.641Z,9.40
2019-03-23T07:12:21.269Z,9.40
2019-03-23T07:15:04.417Z,9.40
2019-03-23T07:17:53.678Z,9.60
2019-03-23T07:20:35.502Z,9.70
2019-03-23T07:23:11.820Z,10.00
2019-03-23T07:25:54.218Z,10.20
2019-03-23T07:28:37.275Z,10.10
2019-03-23T07:31:20.175Z,10.10
2019-03-23T07:33:56.562Z,10.10
2019-03-23T07:36:32.287Z,10.30
2019-03-23T07:39:15.341Z,10.40
2019-03-23T07:41:51.262Z,10.80
2019-03-23T07:44:33.422Z,10.90
2019-03-23T07:47:15.588Z,11.10
2019-03-23T07:49:52.003Z,11.10
2019-03-23T07:52:34.755Z,11.20
2019-03-23T07:55:29.980Z,11.40
2019-03-23T07:58:11.897Z,11.30
2019-03-23T08:00:54.776Z,11.50
2019-03-23T08:03:37.289Z,11.70
2019-03-23T08:06:13.198Z,11.80
2019-03-23T08:08:55.308Z,12.20
2019-03-23T08:11:37.473Z,12.10
2019-03-23T08:14:13.868Z,12.00
2019-03-23T08:16:56.790Z,11.90
2019-03-23T08:19:32.471Z,11.90
2019-03-23T08:22:15.217Z,11.90
2019-03-23T08:24:57.251Z,12.10
2019-03-23T08:27:33.670Z,12.30
2019-03-23T08:30:16.514Z,12.40
2019-03-23T08:32:59.238Z,12.60
2019-03-23T08:35:43.122Z,13.00
2019-03-23T08:38:18.349Z,13.20
2019-03-23T08:41:00.224Z,13.30
2019-03-23T08:43:35.714Z,13.40
2019-03-23T08:46:18.595Z,13.40
2019-03-23T08:49:00.982Z,13.60
2019-03-23T08:51:36.758Z,13.50
2019-03-23T08:54:19.284Z,13.20
2019-03-23T08:57:08.633Z,13.40
2019-03-23T08:59:44.467Z,13.40
2019-03-23T09:02:26.796Z,13.80
2019-03-23T09:05:09.289Z,14.00
2019-03-23T09:07:52.702Z,14.20
2019-03-23T09:10:28.347Z,14.50
2019-03-23T09:13:10.703Z,14.80
2019-03-23T09:15:53.408Z,14.90
2019-03-23T09:18:36.221Z,15.00
2019-03-23T09:21:18.629Z,14.80
2019-03-23T09:23:54.639Z,15.00
2019-03-23T09:26:30.505Z,14.90
2019-03-23T09:29:13.583Z,15.00
2019-03-23T09:31:56.764Z,15.30
2019-03-23T09:34:53.655Z,15.50
2019-03-23T09:37:29.472Z,15.40
2019-03-23T09:40:12.623Z,15.50
2019-03-23T09:43:01.483Z,15.80
2019-03-23T09:45:37.805Z,16.00
2019-03-23T09:48:20.318Z,16.10
2019-03-23T09:51:03.592Z,16.30
2019-03-23T09:53:39.416Z,16.20
2019-03-23T09:56:21.527Z,16.20
2019-03-23T09:59:04.009Z,16.10
2019-03-23T10:01:46.892Z,16.10
2019-03-23T10:04:23.000Z,16.20
2019-03-23T10:07:05.971Z,16.30
2019-03-23T10:09:48.056Z,16.30
2019-03-23T10:12:37.356Z,16.40
2019-03-23T10:15:13.514Z,16.20
2019-03-23T10:17:56.205Z,16.30
2019-03-23T10:20:38.102Z,16.60
2019-03-23T10:23:21.035Z,16.50
2019-03-23T10:26:02.814Z,16.50
2019-03-23T10:28:38.430Z,16.50
2019-03-23T10:31:21.028Z,16.70
2019-03-23T10:33:56.612Z,17.10
2019-03-23T10:36:40.834Z,17.30
2019-03-23T10:39:29.725Z,17.20
2019-03-23T10:42:05.918Z,17.10
2019-03-23T10:44:48.381Z,17.20
2019-03-23T10:47:25.049Z,17.20
2019-03-23T10:50:07.240Z,17.30
2019-03-23T10:52:43.375Z,17.50
2019-03-23T10:55:25.711Z,17.70
2019-03-23T10:58:15.484Z,17.60
2019-03-23T11:00:58.037Z,17.40
2019-03-23T11:03:34.174Z,17.30
2019-03-23T11:06:17.555Z,17.50
2019-03-23T11:08:53.302Z,17.80
2019-03-23T11:11:35.793Z,18.00
2019-03-23T11:14:18.831Z,18.00
2019-03-23T11:17:00.819Z,18.10
2019-03-23T11:19:37.487Z,18.10
2019-03-23T11:22:19.626Z,18.00
2019-03-23T11:25:02.818Z,17.90
2019-03-23T11:27:39.554Z,18.10
2019-03-23T11:30:23.312Z,18.00
2019-03-23T11:32:59.967Z,18.20
2019-03-23T11:35:42.731Z,18.10
2019-03-23T11:38:18.415Z,18.00
2019-03-23T11:41:01.198Z,18.10
2019-03-23T11:43:43.473Z,18.20
2019-03-23T11:46:26.643Z,18.30
2019-03-23T11:49:02.687Z,18.50
2019-03-23T11:51:45.635Z,18.40
2019-03-23T11:54:21.283Z,18.50
2019-03-23T11:57:03.349Z,18.40
2019-03-23T11:59:39.783Z,18.40
2019-03-23T12:02:22.737Z,18.40
2019-03-23T12:04:58.660Z,18.40
2019-03-23T12:07:40.709Z,18.30
2019-03-23T12:10:28.087Z,18.30
2019-03-23T12:13:04.041Z,18.40
2019-03-23T12:15:47.150Z,18.40
2019-03-23T12:18:29.625Z,18.50
2019-03-23T12:21:12.402Z,18.60
2019-03-23T12:23:55.262Z,18.50
2019-03-23T12:26:31.266Z,18.40
2019-03-23T12:29:07.076Z,18.40
2019-03-23T12:31:49.578Z,18.60
2019-03-23T12:34:31.350Z,18.60
2019-03-23T12:37:07.397Z,18.70
2019-03-23T12:39:50.126Z,18.80
2019-03-23T12:42:33.111Z,18.80
2019-03-23T12:45:08.685Z,18.80
2019-03-23T12:47:44.510Z,18.80
2019-03-23T12:50:21.742Z,18.70
2019-03-23T12:52:58.119Z,18.70
2019-03-23T12:55:39.872Z,18.80
2019-03-23T12:58:16.144Z,18.90
2019-03-23T13:00:58.200Z,19.00
2019-03-23T13:03:40.591Z,18.90
2019-03-23T13:06:23.269Z,18.80
2019-03-23T13:09:06.364Z,18.60
2019-03-23T13:11:48.420Z,18.40
2019-03-23T13:14:31.188Z,18.60
2019-03-23T13:17:13.353Z,18.80
2019-03-23T13:19:49.747Z,18.90
2019-03-23T13:22:31.484Z,18.70
2019-03-23T13:25:07.480Z,18.50
2019-03-23T13:27:50.252Z,18.50
2019-03-23T13:30:32.626Z,18.40
2019-03-23T13:33:15.069Z,18.40
2019-03-23T13:35:51.445Z,18.40
2019-03-23T13:38:34.047Z,18.40
2019-03-23T13:41:09.554Z,18.60
2019-03-23T13:43:51.874Z,18.70
2019-03-23T13:46:28.104Z,18.50
2019-03-23T13:49:12.657Z,18.20
2019-03-23T13:51:48.071Z,18.20
2019-03-23T13:54:31.164Z,18.10
2019-03-23T13:57:07.476Z,18.00
2019-03-23T13:59:49.606Z,18.10
2019-03-23T14:02:25.653Z,18.10
2019-03-23T14:05:15.615Z,18.20
2019-03-23T14:07:45.960Z,18.30
2019-03-23T14:10:29.267Z,18.20
2019-03-23T14:13:11.836Z,18.10
2019-03-23T14:15:48.191Z,18.10
2019-03-23T14:18:30.982Z,17.90
2019-03-23T14:21:15.064Z,17.90
2019-03-23T14:23:51.079Z,17.90
2019-03-23T14:26:33.979Z,17.80
2019-03-23T14:29:16.885Z,17.90
2019-03-23T14:31:52.742Z,17.90
2019-03-23T14:34:35.202Z,17.90
2019-03-23T14:37:10.922Z,17.90
2019-03-23T14:39:52.888Z,17.90
2019-03-23T14:42:35.377Z,18.00
2019-03-23T14:45:18.598Z,18.10
2019-03-23T14:47:54.623Z,18.10
2019-03-23T14:50:30.985Z,18.00
2019-03-23T14:53:13.420Z,18.00
2019-03-23T14:55:49.477Z,17.90
2019-03-23T14:58:31.736Z,17.90
2019-03-23T15:01:14.467Z,17.80
2019-03-23T15:03:50.846Z,17.90
2019-03-23T15:06:33.347Z,17.90
2019-03-23T15:09:15.985Z,17.80
2019-03-23T15:11:52.182Z,17.70
2019-03-23T15:14:35.277Z,17.50
2019-03-23T15:17:20.459Z,16.90
2019-03-23T15:19:56.152Z,16.30
2019-03-23T15:22:38.991Z,15.90
2019-03-23T15:25:16.644Z,15.80
2019-03-23T15:27:52.166Z,15.40
2019-03-23T15:30:34.492Z,15.30
2019-03-23T15:33:11.202Z,15.00
2019-03-23T15:35:52.942Z,14.90
2019-03-23T15:38:35.379Z,14.90
2019-03-23T15:41:17.196Z,14.60
2019-03-23T15:44:06.275Z,14.70
2019-03-23T15:47:08.638Z,14.50
2019-03-23T15:49:58.183Z,14.50
2019-03-23T15:52:41.209Z,14.10
2019-03-23T15:55:18.124Z,14.00
2019-03-23T15:58:01.491Z,13.70
2019-03-23T16:00:44.693Z,13.60
2019-03-23T16:03:34.124Z,13.40
2019-03-23T16:06:17.180Z,13.30
2019-03-23T16:09:20.876Z,13.20
2019-03-23T16:12:10.082Z,13.00
2019-03-23T16:14:52.930Z,12.80
2019-03-23T16:17:35.595Z,12.70
2019-03-23T16:20:26.393Z,12.40
2019-03-23T16:23:09.247Z,12.30
2019-03-23T16:25:44.774Z,12.20
2019-03-23T16:28:27.152Z,12.20
2019-03-23T16:31:10.147Z,12.00
2019-03-23T16:33:46.464Z,12.00
2019-03-23T16:36:28.996Z,11.80
2019-03-23T16:39:14.028Z,11.70
2019-03-23T16:41:56.743Z,11.50
2019-03-23T16:44:50.759Z,11.60
2019-03-23T16:47:39.239Z,11.40
2019-03-23T16:50:21.535Z,11.30
2019-03-23T16:52:57.709Z,11.30
2019-03-23T16:55:40.890Z,11.10
2019-03-23T16:58:16.628Z,11.20
2019-03-23T17:00:58.518Z,11.30
2019-03-23T17:03:34.244Z,11.30
2019-03-23T17:06:16.820Z,11.30
2019-03-23T17:08:53.199Z,11.20
2019-03-23T17:11:36.116Z,11.10
2019-03-23T17:14:12.800Z,11.10
2019-03-23T17:16:55.356Z,11.10
2019-03-23T17:20:03.849Z,11.00
2019-03-23T17:22:39.482Z,10.80
2019-03-23T17:25:22.825Z,10.60
2019-03-23T17:28:12.755Z,10.60
2019-03-23T17:30:55.479Z,10.50
2019-03-23T17:33:38.495Z,10.60
2019-03-23T17:36:27.207Z,10.50
2019-03-23T17:39:04.925Z,10.40
2019-03-23T17:42:06.872Z,10.40
2019-03-23T17:44:48.934Z,10.10
2019-03-23T17:47:24.889Z,10.10
2019-03-23T17:50:08.237Z,10.00
2019-03-23T17:52:43.993Z,10.10
2019-03-23T17:55:26.309Z,10.00
2019-03-23T17:58:08.594Z,10.00
2019-03-23T18:00:51.476Z,10.10
2019-03-23T18:03:27.887Z,10.10
2019-03-23T18:06:11.530Z,9.90
2019-03-23T18:08:53.426Z,9.90
2019-03-23T18:11:29.429Z,9.60
2019-03-23T18:14:11.778Z,9.60
2019-03-23T18:16:54.957Z,9.70
2019-03-23T18:19:22.006Z,9.70
2019-03-23T18:22:11.395Z,9.40
2019-03-23T18:25:01.124Z,9.40
2019-03-23T18:27:50.565Z,9.30
2019-03-23T18:30:56.828Z,9.10
2019-03-23T18:33:32.386Z,9.00
2019-03-23T18:36:14.983Z,8.80
2019-03-23T18:39:04.431Z,8.80
2019-03-23T18:41:53.750Z,8.70
2019-03-23T18:44:20.808Z,8.50
2019-03-23T18:47:09.411Z,8.40
2019-03-23T18:49:59.478Z,8.40
2019-03-23T18:52:48.681Z,8.30
2019-03-23T18:55:38.190Z,8.20
2019-03-23T18:58:27.718Z,8.10
2019-03-23T19:01:16.782Z,8.20
2019-03-23T19:04:05.962Z,8.10
2019-03-23T19:06:55.349Z,8.10
2019-03-23T19:12:10.971Z,8.10
2019-03-23T19:15:00.626Z,8.10
2019-03-23T19:17:27.677Z,8.00
2019-03-23T19:25:18.327Z,7.90
2019-03-23T19:28:00.649Z,8.00
2019-03-23T19:30:43.072Z,8.00
2019-03-23T19:33:25.500Z,8.00
2019-03-23T19:36:14.317Z,7.90
2019-03-23T19:39:03.356Z,7.80
2019-03-23T19:41:52.653Z,7.90
2019-03-23T19:44:42.399Z,7.70
2019-03-23T19:52:25.238Z,7.70
2019-03-23T19:57:40.711Z,7.70
2019-03-23T20:00:34.503Z,7.70
2019-03-23T20:03:23.314Z,7.60
2019-03-23T20:06:12.867Z,7.70
2019-03-23T20:08:55.465Z,7.60
2019-03-23T20:11:31.345Z,7.60
2019-03-23T20:14:14.486Z,7.50
2019-03-23T20:16:57.101Z,7.50
2019-03-23T20:19:39.678Z,7.60
2019-03-23T20:22:22.942Z,7.60
2019-03-23T20:25:12.972Z,7.60
2019-03-23T20:27:56.172Z,7.60
2019-03-23T20:30:38.903Z,7.60
2019-03-23T20:33:22.464Z,7.60
2019-03-23T20:35:58.830Z,7.70
2019-03-23T20:38:41.955Z,7.70
2019-03-23T20:41:17.870Z,7.70
2019-03-23T20:44:09.129Z,7.70
2019-03-23T20:46:40.405Z,7.60
2019-03-23T20:49:23.750Z,7.70
2019-03-23T20:51:59.977Z,7.60
2019-03-23T20:54:42.794Z,7.60
2019-03-23T20:57:23.968Z,7.70
2019-03-23T21:00:03.147Z,7.70
2019-03-23T21:02:39.607Z,7.60
2019-03-23T21:05:36.260Z,7.50
2019-03-23T21:08:12.775Z,7.60
2019-03-23T21:13:22.163Z,7.70
2019-03-23T21:16:04.593Z,7.60
2019-03-23T21:21:20.233Z,7.60
2019-03-23T21:24:03.192Z,7.40
2019-03-23T21:26:39.118Z,7.50
2019-03-23T21:29:14.286Z,7.50
2019-03-23T21:31:57.147Z,7.40
2019-03-23T21:37:12.930Z,7.40
2019-03-23T21:39:55.082Z,7.30
2019-03-23T21:42:31.629Z,7.40
2019-03-23T21:45:08.799Z,7.30
2019-03-23T21:47:51.441Z,7.30
2019-03-23T21:50:18.478Z,7.30
2019-03-23T21:53:07.798Z,7.30
2019-03-23T21:55:57.438Z,7.30
2019-03-23T21:58:46.712Z,7.30
2019-03-23T22:01:36.319Z,7.30
2019-03-23T22:04:25.553Z,7.30
2019-03-23T22:07:14.360Z,7.30
2019-03-23T22:10:03.791Z,7.30
2019-03-23T22:12:53.332Z,7.20
2019-03-23T22:15:36.323Z,7.20
2019-03-23T22:18:18.277Z,7.10
2019-03-23T22:21:07.626Z,7.20
2019-03-23T22:23:56.863Z,7.10
2019-03-23T22:31:46.299Z,7.00
2019-03-23T22:34:22.855Z,7.10
2019-03-23T22:36:52.302Z,7.10
2019-03-23T22:39:28.317Z,7.10
2019-03-23T22:41:57.832Z,7.10
2019-03-23T22:44:27.347Z,7.00
2019-03-23T22:47:03.908Z,7.00
2019-03-23T22:49:33.352Z,7.00
2019-03-23T22:52:09.966Z,7.00
2019-03-23T22:54:46.150Z,7.00
2019-03-23T22:57:22.351Z,7.00
2019-03-23T22:59:58.525Z,7.00
2019-03-23T23:02:34.811Z,6.90
2019-03-23T23:05:06.573Z,6.90
2019-03-23T23:07:42.823Z,6.90
2019-03-23T23:10:12.578Z,6.90
2019-03-23T23:12:48.667Z,6.90
2019-03-23T23:15:24.892Z,6.90
2019-03-23T23:18:01.368Z,6.90
2019-03-23T23:20:36.913Z,6.90
2019-03-23T23:23:06.575Z,6.90
2019-03-23T23:25:42.623Z,6.80
2019-03-23T23:28:18.624Z,6.80
2019-03-23T23:30:54.174Z,6.90
2019-03-23T23:33:30.401Z,6.80
2019-03-23T23:36:06.245Z,6.80
2019-03-23T23:38:35.701Z,6.80
2019-03-23T23:41:12.371Z,6.70
2019-03-23T23:43:48.262Z,6.70
2019-03-23T23:46:24.764Z,6.70
2019-03-23T23:49:06.962Z,6.60
2019-03-23T23:51:36.539Z,6.60
2019-03-23T23:54:12.671Z,6.60
2019-03-23T23:56:42.167Z,6.50
2019-03-23T23:59:18.808Z,6.50
